createdAt,value
2022-09-29T00:01:06.280Z,100082.44
2022-09-29T00:03:33.600Z,100078.94
2022-09-29T00:06:00.746Z,100080.16
2022-09-29T00:08:30.685Z,100089.19
2022-09-29T00:10:58.158Z,100088.75
2022-09-29T00:13:25.352Z,100090.41
2022-09-29T00:16:01.093Z,100090.59
2022-09-29T00:18:30.028Z,100086.28
2022-09-29T00:21:05.903Z,100086.66
2022-09-29T00:23:34.151Z,100089.72
2022-09-29T00:26:11.557Z,100087.44
2022-09-29T00:28:41.221Z,100077.16
2022-09-29T00:31:11.585Z,100081.88
2022-09-29T00:33:39.705Z,100073.03
2022-09-29T00:36:12.465Z,100075.09
2022-09-29T00:38:40.529Z,100079.78
2022-09-29T00:41:08.655Z,100069.31
2022-09-29T00:44:14.654Z,100072.78
2022-09-29T00:47:03.261Z,100079.78
2022-09-29T00:50:05.019Z,100077.50
2022-09-29T00:52:44.692Z,100079.97
2022-09-29T00:55:28.192Z,100070.91
2022-09-29T00:58:13.151Z,100079.94
2022-09-29T01:00:40.704Z,100073.31
2022-09-29T01:03:16.360Z,100081.72
2022-09-29T01:05:59.771Z,100074.31
2022-09-29T01:08:39.534Z,100081.47
2022-09-29T01:11:07.187Z,100083.50
2022-09-29T01:13:35.060Z,100073.22
2022-09-29T01:16:02.331Z,100078.94
2022-09-29T01:18:29.832Z,100076.47
2022-09-29T01:21:23.643Z,100077.31
2022-09-29T01:24:28.226Z,100080.53
2022-09-29T01:27:34.416Z,100073.94
2022-09-29T01:30:16.262Z,100080.09
2022-09-29T01:33:32.567Z,100084.81
2022-09-29T01:36:31.469Z,100080.50
2022-09-29T01:39:19.860Z,100082.53
2022-09-29T01:42:14.652Z,100087.03
2022-09-29T01:44:51.001Z,100086.22
2022-09-29T01:47:27.238Z,100092.16
2022-09-29T01:50:03.698Z,100086.22
2022-09-29T01:52:37.335Z,100083.72
2022-09-29T01:55:11.859Z,100087.41
2022-09-29T01:57:53.469Z,100083.72
2022-09-29T02:00:23.888Z,100088.00
2022-09-29T02:03:20.175Z,100084.72
2022-09-29T02:05:58.507Z,100088.78
2022-09-29T02:08:56.159Z,100091.84
2022-09-29T02:11:23.708Z,100092.22
2022-09-29T02:14:13.335Z,100088.09
2022-09-29T02:16:55.576Z,100093.59
2022-09-29T02:19:30.581Z,100094.81
2022-09-29T02:21:57.811Z,100089.66
2022-09-29T02:24:25.277Z,100090.50
2022-09-29T02:26:59.544Z,100091.69
2022-09-29T02:29:27.427Z,100083.06
2022-09-29T02:31:57.317Z,100087.13
2022-09-29T02:34:24.765Z,100084.47
2022-09-29T02:37:30.088Z,100096.97
2022-09-29T02:40:37.114Z,100091.19
2022-09-29T02:43:34.979Z,100089.53
2022-09-29T02:46:43.631Z,100099.38
2022-09-29T02:49:28.039Z,100091.94
2022-09-29T02:52:14.499Z,100093.97
2022-09-29T02:54:44.785Z,100088.84
2022-09-29T02:57:46.244Z,100095.38
2022-09-29T03:00:18.704Z,100089.41
2022-09-29T03:02:45.828Z,100095.75
2022-09-29T03:05:17.743Z,100095.75
2022-09-29T03:07:45.223Z,100096.13
2022-09-29T03:10:14.417Z,100093.63
2022-09-29T03:12:41.505Z,100091.38
2022-09-29T03:15:11.771Z,100096.25
2022-09-29T03:17:40.423Z,100092.78
2022-09-29T03:20:08.695Z,100093.78
2022-09-29T03:22:35.896Z,100096.63
2022-09-29T03:25:06.201Z,100092.50
2022-09-29T03:27:33.864Z,100090.03
2022-09-29T03:30:00.753Z,100090.03
2022-09-29T03:32:27.667Z,100089.38
2022-09-29T03:34:55.009Z,100096.75
2022-09-29T03:37:22.042Z,100097.31
2022-09-29T03:39:48.947Z,100094.81
2022-09-29T03:42:16.512Z,100098.50
2022-09-29T03:44:43.639Z,100104.19
2022-09-29T03:47:10.565Z,100109.53
2022-09-29T03:49:37.637Z,100109.53
2022-09-29T03:52:04.526Z,100104.56
2022-09-29T03:54:31.448Z,100114.56
2022-09-29T03:56:58.358Z,100103.66
2022-09-29T03:59:25.316Z,100116.31
2022-09-29T04:01:52.291Z,100116.50
2022-09-29T04:04:19.374Z,100115.88
2022-09-29T04:06:46.307Z,100119.53
2022-09-29T04:09:13.312Z,100120.38
2022-09-29T04:11:40.256Z,100118.91
2022-09-29T04:14:07.309Z,100117.44
2022-09-29T04:16:34.319Z,100123.59
2022-09-29T04:19:01.347Z,100127.44
2022-09-29T04:21:28.344Z,100127.84
2022-09-29T04:23:55.270Z,100130.50
2022-09-29T04:26:22.177Z,100130.88
2022-09-29T04:28:49.065Z,100132.50
2022-09-29T04:31:16.390Z,100134.53
2022-09-29T04:33:43.469Z,100137.19
2022-09-29T04:36:10.422Z,100142.50
2022-09-29T04:38:37.421Z,100137.19
2022-09-29T04:41:04.680Z,100144.34
2022-09-29T04:43:31.652Z,100143.72
2022-09-29T04:46:04.101Z,100145.72
2022-09-29T04:48:35.480Z,100143.72
2022-09-29T04:51:03.506Z,100143.88
2022-09-29T04:53:30.536Z,100144.06
2022-09-29T04:55:57.467Z,100144.25
2022-09-29T04:58:24.349Z,100155.72
2022-09-29T05:00:51.372Z,100149.94
2022-09-29T05:03:18.319Z,100150.75
2022-09-29T05:05:45.252Z,100155.25
2022-09-29T05:08:12.166Z,100152.78
2022-09-29T05:10:39.125Z,100147.00
2022-09-29T05:13:06.016Z,100144.06
2022-09-29T05:15:32.981Z,100152.69
2022-09-29T05:18:03.256Z,100159.66
2022-09-29T05:20:38.372Z,100153.03
2022-09-29T05:23:10.115Z,100162.88
2022-09-29T05:25:38.570Z,100172.69
2022-09-29T05:28:05.519Z,100168.19
2022-09-29T05:30:32.656Z,100171.84
2022-09-29T05:32:59.567Z,100172.69
2022-09-29T05:35:26.529Z,100176.16
2022-09-29T05:37:53.587Z,100179.66
2022-09-29T05:40:23.981Z,100185.78
2022-09-29T05:42:51.755Z,100183.97
2022-09-29T05:45:18.821Z,100184.59
2022-09-29T05:47:46.517Z,100187.28
2022-09-29T05:50:14.070Z,100193.22
2022-09-29T05:52:41.504Z,100198.56
2022-09-29T05:55:10.508Z,100194.88
2022-09-29T05:57:37.880Z,100197.56
2022-09-29T06:00:06.271Z,100196.19
2022-09-29T06:02:34.099Z,100207.47
2022-09-29T06:05:01.132Z,100208.13
2022-09-29T06:07:28.036Z,100207.41
2022-09-29T06:09:54.927Z,100214.84
2022-09-29T06:12:22.100Z,100211.59
2022-09-29T06:14:49.095Z,100208.56
2022-09-29T06:17:16.560Z,100204.81
2022-09-29T06:19:44.881Z,100215.56
2022-09-29T06:22:12.065Z,100210.06
2022-09-29T06:24:38.957Z,100207.47
2022-09-29T06:27:05.879Z,100214.75
2022-09-29T06:29:32.791Z,100219.97
2022-09-29T06:31:59.746Z,100225.75
2022-09-29T06:34:26.707Z,100228.06
2022-09-29T06:37:12.730Z,100225.44
2022-09-29T06:39:39.639Z,100223.06
2022-09-29T06:42:06.555Z,100220.47
2022-09-29T06:44:33.478Z,100223.41
2022-09-29T06:47:00.593Z,100232.88
2022-09-29T06:49:28.547Z,100232.75
2022-09-29T06:51:55.441Z,100231.56
2022-09-29T06:54:26.900Z,100230.81
2022-09-29T06:56:55.392Z,100240.09
2022-09-29T06:59:22.558Z,100234.84
2022-09-29T07:01:51.596Z,100245.56
2022-09-29T07:04:20.329Z,100242.75
2022-09-29T07:06:47.740Z,100243.84
2022-09-29T07:09:18.084Z,100252.50
2022-09-29T07:11:49.304Z,100251.16
2022-09-29T07:14:18.525Z,100247.94
2022-09-29T07:16:48.190Z,100246.09
2022-09-29T07:19:18.036Z,100251.03
2022-09-29T07:21:46.138Z,100254.34
2022-09-29T07:24:13.264Z,100259.75
2022-09-29T07:26:40.260Z,100267.41
2022-09-29T07:29:12.641Z,100266.25
2022-09-29T07:31:50.013Z,100262.59
2022-09-29T07:34:20.199Z,100262.44
2022-09-29T07:36:47.164Z,100264.97
2022-09-29T07:39:14.703Z,100267.84
2022-09-29T07:41:41.751Z,100275.28
2022-09-29T07:44:08.983Z,100276.22
2022-09-29T07:46:35.897Z,100281.56
2022-09-29T07:49:03.091Z,100281.38
2022-09-29T07:51:30.090Z,100283.66
2022-09-29T07:54:02.971Z,100287.91
2022-09-29T07:56:30.227Z,100294.50
2022-09-29T07:58:57.941Z,100299.88
2022-09-29T08:01:25.405Z,100308.97
2022-09-29T08:03:55.111Z,100304.41
2022-09-29T08:06:24.174Z,100306.31
2022-09-29T08:09:02.398Z,100309.03
2022-09-29T08:11:32.659Z,100317.97
2022-09-29T08:14:01.614Z,100321.13
2022-09-29T08:16:28.972Z,100319.13
2022-09-29T08:18:55.923Z,100323.44
2022-09-29T08:21:23.073Z,100322.69
2022-09-29T08:23:50.268Z,100319.63
2022-09-29T08:26:28.027Z,100324.56
2022-09-29T08:29:07.603Z,100329.75
2022-09-29T08:31:38.039Z,100331.19
2022-09-29T08:34:05.346Z,100341.13
2022-09-29T08:36:32.351Z,100349.56
2022-09-29T08:39:00.036Z,100348.56
2022-09-29T08:42:00.551Z,100346.13
2022-09-29T08:45:02.120Z,100349.84
2022-09-29T08:47:47.427Z,100349.47
2022-09-29T08:50:23.047Z,100355.66
2022-09-29T08:53:01.091Z,100351.34
2022-09-29T08:55:57.292Z,100361.00
2022-09-29T08:58:24.798Z,100363.06
2022-09-29T09:01:19.533Z,100363.28
2022-09-29T09:04:06.679Z,100365.34
2022-09-29T09:07:00.271Z,100362.03
2022-09-29T09:09:58.067Z,100372.97
2022-09-29T09:12:52.377Z,100373.31
2022-09-29T09:15:47.516Z,100386.13
2022-09-29T09:18:29.784Z,100380.56
2022-09-29T09:21:11.740Z,100379.50
2022-09-29T09:24:05.235Z,100379.06
2022-09-29T09:26:47.287Z,100385.06
2022-09-29T09:29:25.109Z,100383.38
2022-09-29T09:32:07.819Z,100386.66
2022-09-29T09:34:50.141Z,100382.72
2022-09-29T09:37:25.241Z,100375.06
2022-09-29T09:40:15.596Z,100386.59
2022-09-29T09:42:49.044Z,100388.84
2022-09-29T09:45:32.261Z,100390.03
2022-09-29T09:48:30.803Z,100389.72
2022-09-29T09:51:08.957Z,100391.16
2022-09-29T09:53:41.148Z,100388.78
2022-09-29T09:56:23.611Z,100392.69
2022-09-29T09:59:07.556Z,100392.81
2022-09-29T10:01:34.650Z,100389.69
2022-09-29T10:04:02.360Z,100384.63
2022-09-29T10:06:29.845Z,100392.16
2022-09-29T10:08:56.851Z,100388.00
2022-09-29T10:11:32.396Z,100393.59
2022-09-29T10:14:23.572Z,100382.47
2022-09-29T10:17:05.701Z,100393.47
2022-09-29T10:20:05.875Z,100392.94
2022-09-29T10:22:34.848Z,100396.50
2022-09-29T10:25:20.856Z,100399.56
2022-09-29T10:27:55.104Z,100393.56
2022-09-29T10:30:34.656Z,100388.50
2022-09-29T10:33:10.403Z,100397.00
2022-09-29T10:35:41.737Z,100397.97
2022-09-29T10:38:24.289Z,100394.47
2022-09-29T10:41:01.256Z,100386.78
2022-09-29T10:43:38.886Z,100389.47
2022-09-29T10:46:26.704Z,100399.53
2022-09-29T10:49:16.887Z,100397.59
2022-09-29T10:51:58.247Z,100390.19
2022-09-29T10:54:27.121Z,100387.91
2022-09-29T10:56:56.032Z,100397.44
2022-09-29T10:59:24.735Z,100397.94
2022-09-29T11:02:01.266Z,100397.50
2022-09-29T11:04:36.314Z,100393.78
2022-09-29T11:07:12.969Z,100390.13
2022-09-29T11:09:43.675Z,100382.50
2022-09-29T11:12:33.875Z,100389.50
2022-09-29T11:15:02.160Z,100387.47
2022-09-29T11:17:37.278Z,100389.09
2022-09-29T11:20:10.954Z,100386.31
2022-09-29T11:22:52.794Z,100396.28
2022-09-29T11:25:28.556Z,100386.38
2022-09-29T11:28:33.553Z,100392.44
2022-09-29T11:31:37.996Z,100389.47
2022-09-29T11:34:31.466Z,100399.44
2022-09-29T11:37:21.621Z,100400.50
2022-09-29T11:40:02.096Z,100394.03
2022-09-29T11:43:12.010Z,100402.50
2022-09-29T11:45:52.248Z,100396.44
2022-09-29T11:48:43.552Z,100398.97
2022-09-29T11:51:45.055Z,100398.41
2022-09-29T11:54:32.466Z,100397.50
2022-09-29T11:57:09.672Z,100407.47
2022-09-29T12:00:13.194Z,100409.44
2022-09-29T12:02:46.411Z,100411.66
2022-09-29T12:05:54.223Z,100409.53
2022-09-29T12:08:39.939Z,100408.97
2022-09-29T12:15:02.515Z,100423.59
2022-09-29T12:17:35.246Z,100421.59
2022-09-29T12:20:37.889Z,100418.31
2022-09-29T12:23:11.965Z,100416.81
2022-09-29T12:25:57.163Z,100425.00
2022-09-29T12:28:32.287Z,100418.53
2022-09-29T12:31:15.796Z,100420.22
2022-09-29T12:34:21.225Z,100422.91
2022-09-29T12:37:14.865Z,100411.59
2022-09-29T12:39:56.760Z,100423.94
2022-09-29T12:42:53.428Z,100421.72
2022-09-29T12:45:38.367Z,100423.13
2022-09-29T12:48:54.624Z,100427.56
2022-09-29T12:51:33.838Z,100423.84
2022-09-29T12:54:21.073Z,100419.19
2022-09-29T12:57:15.478Z,100427.63
2022-09-29T13:00:18.695Z,100422.31
2022-09-29T13:03:26.833Z,100421.31
2022-09-29T13:06:41.161Z,100429.34
2022-09-29T13:09:36.267Z,100436.81
2022-09-29T13:12:34.341Z,100430.16
2022-09-29T13:15:23.129Z,100430.91
2022-09-29T13:18:41.906Z,100430.56
2022-09-29T13:22:07.054Z,100435.66
2022-09-29T13:25:14.592Z,100436.38
2022-09-29T13:27:46.860Z,100438.59
2022-09-29T13:30:25.399Z,100440.00
2022-09-29T13:33:12.360Z,100448.25
2022-09-29T13:35:47.160Z,100448.88
2022-09-29T13:38:21.877Z,100457.50
2022-09-29T13:41:24.413Z,100458.06
2022-09-29T13:43:51.245Z,100456.91
2022-09-29T13:46:30.049Z,100452.38
2022-09-29T13:49:11.660Z,100453.09
2022-09-29T13:51:58.716Z,100452.06
2022-09-29T13:54:43.439Z,100449.16
2022-09-29T13:57:13.426Z,100450.59
2022-09-29T13:59:55.352Z,100447.19
2022-09-29T14:02:47.883Z,100455.22
2022-09-29T14:05:24.072Z,100454.16
2022-09-29T14:10:43.300Z,100459.19
2022-09-29T14:13:23.269Z,100454.16
2022-09-29T14:16:05.015Z,100457.09
2022-09-29T14:19:07.630Z,100465.91
2022-09-29T14:21:57.633Z,100456.81
2022-09-29T14:24:36.886Z,100461.44
2022-09-29T14:27:32.044Z,100460.09
2022-09-29T14:30:13.900Z,100459.63
2022-09-29T14:32:56.379Z,100462.34
2022-09-29T14:35:37.204Z,100461.28
2022-09-29T14:38:22.596Z,100473.50
2022-09-29T14:41:07.784Z,100474.56
2022-09-29T14:43:40.188Z,100480.78
2022-09-29T14:46:47.566Z,100487.34
2022-09-29T14:50:24.004Z,100485.59
2022-09-29T14:52:56.676Z,100488.06
2022-09-29T14:55:52.281Z,100486.78
2022-09-29T14:59:21.011Z,100487.47
2022-09-29T15:02:28.951Z,100489.81
2022-09-29T15:04:56.272Z,100492.63
2022-09-29T15:07:26.898Z,100494.75
2022-09-29T15:09:59.680Z,100495.13
2022-09-29T15:12:32.181Z,100497.47
2022-09-29T15:15:01.584Z,100507.09
2022-09-29T15:17:53.034Z,100508.75
2022-09-29T15:20:37.987Z,100513.13
2022-09-29T15:23:26.028Z,100515.59
2022-09-29T15:28:37.698Z,100514.19
2022-09-29T15:31:15.454Z,100519.56
2022-09-29T15:33:44.592Z,100521.94
2022-09-29T15:36:22.033Z,100519.34
2022-09-29T15:39:02.255Z,100520.50
2022-09-29T15:41:33.666Z,100518.16
2022-09-29T15:44:17.905Z,100531.31
2022-09-29T15:46:52.000Z,100526.72
2022-09-29T15:49:28.032Z,100526.84
2022-09-29T15:52:05.543Z,100530.13
2022-09-29T15:57:47.899Z,100528.13
2022-09-29T16:00:23.719Z,100529.41
2022-09-29T16:03:13.515Z,100530.69
2022-09-29T16:05:47.977Z,100526.47
2022-09-29T16:08:22.877Z,100539.50
2022-09-29T16:11:01.262Z,100537.16
2022-09-29T16:13:36.392Z,100546.41
2022-09-29T16:16:10.863Z,100548.16
2022-09-29T16:18:46.953Z,100552.97
2022-09-29T16:21:21.980Z,100549.50
2022-09-29T16:23:51.065Z,100567.50
2022-09-29T16:26:33.341Z,100558.69
2022-09-29T16:29:12.583Z,100559.25
2022-09-29T16:31:46.556Z,100564.88
2022-09-29T16:34:22.740Z,100576.19
2022-09-29T16:37:03.886Z,100575.81
2022-09-29T16:39:45.400Z,100573.28
2022-09-29T16:42:26.923Z,100580.03
2022-09-29T16:44:55.863Z,100592.59
2022-09-29T16:47:27.305Z,100597.75
2022-09-29T16:49:57.458Z,100590.22
2022-09-29T16:52:49.188Z,100597.09
2022-09-29T16:55:29.465Z,100593.03
2022-09-29T16:58:08.905Z,100597.44
2022-09-29T17:00:36.498Z,100594.81
2022-09-29T17:03:05.509Z,100606.47
2022-09-29T17:05:43.472Z,100604.25
2022-09-29T17:08:26.690Z,100606.44
2022-09-29T17:10:56.560Z,100613.72
2022-09-29T17:13:24.331Z,100615.00
2022-09-29T17:15:53.735Z,100614.41
2022-09-29T17:18:23.066Z,100618.38
2022-09-29T17:20:49.974Z,100626.69
2022-09-29T17:23:16.912Z,100625.94
2022-09-29T17:25:47.016Z,100626.38
2022-09-29T17:28:24.684Z,100632.22
2022-09-29T17:30:55.343Z,100635.53
2022-09-29T17:33:22.303Z,100635.78
2022-09-29T17:35:55.273Z,100641.41
2022-09-29T17:38:23.781Z,100637.50
2022-09-29T17:40:59.955Z,100643.50
2022-09-29T17:43:27.538Z,100644.97
2022-09-29T17:45:58.690Z,100638.19
2022-09-29T17:48:27.079Z,100650.03
2022-09-29T17:50:58.007Z,100646.53
2022-09-29T17:53:26.208Z,100651.91
2022-09-29T17:55:56.781Z,100649.22
2022-09-29T17:58:24.495Z,100650.69
2022-09-29T18:00:54.683Z,100656.91
2022-09-29T18:03:22.206Z,100653.41
2022-09-29T18:05:56.176Z,100664.38
2022-09-29T18:08:26.565Z,100660.44
2022-09-29T18:11:01.568Z,100663.34
2022-09-29T18:13:31.590Z,100662.75
2022-09-29T18:16:00.549Z,100673.91
2022-09-29T18:18:27.956Z,100674.94
2022-09-29T18:20:54.964Z,100676.41
2022-09-29T18:23:24.198Z,100681.75
2022-09-29T18:25:52.707Z,100679.69
2022-09-29T18:28:20.367Z,100677.63
2022-09-29T18:30:52.263Z,100678.25
2022-09-29T18:33:20.655Z,100680.09
2022-09-29T18:35:53.576Z,100682.97
2022-09-29T18:38:21.045Z,100692.47
2022-09-29T18:40:48.664Z,100693.28
2022-09-29T18:43:15.764Z,100700.28
2022-09-29T18:45:43.965Z,100696.16
2022-09-29T18:48:15.863Z,100714.50
2022-09-29T18:50:46.502Z,100713.06
2022-09-29T18:53:16.676Z,100714.06
2022-09-29T18:55:44.497Z,100713.88
2022-09-29T18:58:20.745Z,100726.03
2022-09-29T19:00:53.604Z,100726.22
2022-09-29T19:03:26.978Z,100726.81
2022-09-29T19:05:55.343Z,100726.19
2022-09-29T19:08:23.290Z,100729.09
2022-09-29T19:10:57.555Z,100740.63
2022-09-29T19:13:25.203Z,100729.84
2022-09-29T19:15:57.536Z,100739.34
2022-09-29T19:18:25.691Z,100740.19
2022-09-29T19:20:56.324Z,100743.03
2022-09-29T19:23:25.558Z,100743.84
2022-09-29T19:25:54.204Z,100738.25
2022-09-29T19:28:23.037Z,100747.34
2022-09-29T19:30:50.634Z,100750.81
2022-09-29T19:33:22.674Z,100742.97
2022-09-29T19:35:54.412Z,100757.34
2022-09-29T19:38:22.514Z,100764.38
2022-09-29T19:40:51.391Z,100755.25
2022-09-29T19:43:18.515Z,100767.19
2022-09-29T19:45:45.533Z,100770.06
2022-09-29T19:48:21.138Z,100769.63
2022-09-29T19:51:14.251Z,100779.09
2022-09-29T19:53:44.526Z,100790.59
2022-09-29T19:56:16.560Z,100784.75
2022-09-29T19:58:43.666Z,100793.44
2022-09-29T20:01:14.207Z,100798.34
2022-09-29T20:03:43.297Z,100796.25
2022-09-29T20:06:10.397Z,100795.22
2022-09-29T20:08:37.384Z,100806.53
2022-09-29T20:11:12.536Z,100800.97
2022-09-29T20:13:39.796Z,100813.47
2022-09-29T20:16:07.280Z,100808.75
2022-09-29T20:18:36.918Z,100815.53
2022-09-29T20:21:08.947Z,100811.94
2022-09-29T20:23:38.659Z,100813.28
2022-09-29T20:26:08.870Z,100807.94
2022-09-29T20:28:37.270Z,100813.75
2022-09-29T20:31:07.272Z,100812.66
2022-09-29T20:33:36.139Z,100814.31
2022-09-29T20:36:04.892Z,100811.19
2022-09-29T20:38:34.362Z,100817.38
2022-09-29T20:41:02.611Z,100822.69
2022-09-29T20:43:30.121Z,100822.69
2022-09-29T20:46:03.741Z,100822.81
2022-09-29T20:48:35.908Z,100833.50
2022-09-29T20:51:05.200Z,100832.69
2022-09-29T20:53:34.686Z,100839.63
2022-09-29T20:56:08.127Z,100844.34
2022-09-29T20:58:36.301Z,100840.75
2022-09-29T21:01:20.925Z,100849.78
2022-09-29T21:04:05.482Z,100852.47
2022-09-29T21:06:35.676Z,100849.97
2022-09-29T21:09:05.695Z,100859.03
2022-09-29T21:11:38.154Z,100863.28
2022-09-29T21:14:13.288Z,100871.31
2022-09-29T21:16:45.163Z,100870.41
2022-09-29T21:19:14.389Z,100881.47
2022-09-29T21:21:43.789Z,100873.16
2022-09-29T21:24:14.414Z,100876.50
2022-09-29T21:26:41.789Z,100879.16
2022-09-29T21:29:16.528Z,100877.44
2022-09-29T21:31:44.514Z,100870.06
2022-09-29T21:34:15.876Z,100877.63
2022-09-29T21:36:43.232Z,100876.34
2022-09-29T21:39:11.007Z,100882.88
2022-09-29T21:41:41.062Z,100878.28
2022-09-29T21:44:15.753Z,100883.63
2022-09-29T21:46:43.769Z,100877.81
2022-09-29T21:49:12.651Z,100880.84
2022-09-29T21:51:43.747Z,100879.56
2022-09-29T21:54:17.779Z,100878.09
2022-09-29T21:56:46.685Z,100882.94
2022-09-29T21:59:18.016Z,100878.78
2022-09-29T22:01:46.005Z,100872.59
2022-09-29T22:04:14.520Z,100883.28
2022-09-29T22:06:44.562Z,100882.38
2022-09-29T22:09:20.946Z,100881.06
2022-09-29T22:11:49.728Z,100883.75
2022-09-29T22:14:16.953Z,100884.13
2022-09-29T22:16:45.327Z,100890.31
2022-09-29T22:19:29.214Z,100890.50
2022-09-29T22:21:56.268Z,100889.38
2022-09-29T22:24:24.452Z,100881.72
2022-09-29T22:26:51.522Z,100880.88
2022-09-29T22:29:18.689Z,100884.94
2022-09-29T22:31:45.951Z,100890.66
2022-09-29T22:34:12.956Z,100898.00
2022-09-29T22:36:40.008Z,100903.00
2022-09-29T22:39:08.144Z,100902.41
2022-09-29T22:41:39.422Z,100900.22
2022-09-29T22:44:07.047Z,100902.72
2022-09-29T22:46:34.813Z,100900.69
2022-09-29T22:49:01.840Z,100899.66
2022-09-29T22:51:28.765Z,100899.66
2022-09-29T22:53:55.733Z,100901.97
2022-09-29T22:56:28.443Z,100896.47
2022-09-29T22:59:01.301Z,100902.63
2022-09-29T23:01:28.850Z,100897.94
2022-09-29T23:03:55.992Z,100895.91
2022-09-29T23:06:22.990Z,100897.41
2022-09-29T23:08:49.958Z,100899.88
2022-09-29T23:11:20.319Z,100903.88
2022-09-29T23:13:48.763Z,100905.53
2022-09-29T23:16:17.441Z,100909.66
2022-09-29T23:18:46.459Z,100910.47
2022-09-29T23:21:20.136Z,100919.16
2022-09-29T23:23:59.531Z,100905.13
2022-09-29T23:26:29.572Z,100913.97
2022-09-29T23:28:56.736Z,100915.19
2022-09-29T23:31:24.379Z,100914.25
2022-09-29T23:33:59.763Z,100912.44
2022-09-29T23:36:30.259Z,100911.94
2022-09-29T23:39:15.531Z,100916.66
2022-09-29T23:41:49.045Z,100907.97
2022-09-29T23:44:23.148Z,100916.19
2022-09-29T23:46:51.046Z,100912.38
2022-09-29T23:49:22.205Z,100907.41
2022-09-29T23:51:53.043Z,100905.09
2022-09-29T23:54:23.371Z,100910.97
2022-09-29T23:56:52.483Z,100911.97
2022-09-29T23:59:19.843Z,100909.00
